Time;durP1;ratioP1;P1;durP2;ratioP2;P2;SDS_P1;SDS_P2;PMS_P1;PMS_P2;Temp;Humidity;BMP_temperature;BMP_pressure;BME280_temperature;BME280_humidity;BME280_pressure;Samples;Min_cycle;Max_cycle;Signal;HPM_P1;HPM_P2
2021/09/23 00:01:50;;;;;;;10.07;1.10;;;;;;;;;;5051579;28;20037;-56
2021/09/23 00:06:48;;;;;;;11.65;1.20;;;;;;;;;;5048785;28;20090;-57
2021/09/23 00:09:14;;;;;;;7.93;0.80;;;;;;;;;;5048772;28;20045;-56
2021/09/23 00:11:40;;;;;;;5.68;1.13;;;;;;;;;;5047098;28;20820;-57
2021/09/23 00:14:06;;;;;;;9.13;1.45;;;;;;;;;;5047853;28;20144;-57
2021/09/23 00:16:32;;;;;;;3.88;1.02;;;;;;;;;;5046301;28;20037;-55
2021/09/23 00:18:58;;;;;;;5.47;1.10;;;;;;;;;;5047798;28;20059;-56
2021/09/23 00:21:23;;;;;;;6.75;1.00;;;;;;;;;;5034760;28;20536;-56
2021/09/23 00:23:50;;;;;;;7.88;1.15;;;;;;;;;;5049224;28;20663;-55
2021/09/23 00:26:16;;;;;;;7.57;1.33;;;;;;;;;;5048393;28;20428;-55
2021/09/23 00:28:43;;;;;;;9.52;1.40;;;;;;;;;;5046063;28;20048;-55
2021/09/23 00:31:09;;;;;;;3.67;0.90;;;;;;;;;;5045859;28;20048;-54
2021/09/23 00:33:35;;;;;;;5.00;1.10;;;;;;;;;;5048292;28;20104;-55
2021/09/23 00:36:00;;;;;;;5.50;1.27;;;;;;;;;;5046956;28;20044;-56
2021/09/23 00:38:26;;;;;;;10.18;1.08;;;;;;;;;;5046598;28;20131;-55
2021/09/23 00:40:52;;;;;;;5.20;1.13;;;;;;;;;;5046543;28;20128;-56
2021/09/23 00:43:18;;;;;;;12.38;1.10;;;;;;;;;;5048167;28;20174;-55
2021/09/23 00:45:44;;;;;;;5.25;1.00;;;;;;;;;;5049032;28;20115;-55
2021/09/23 00:48:10;;;;;;;4.80;0.80;;;;;;;;;;5047566;28;20126;-55
2021/09/23 00:50:36;;;;;;;6.47;1.08;;;;;;;;;;5046056;28;20132;-56
2021/09/23 00:53:02;;;;;;;6.07;0.85;;;;;;;;;;5048835;28;20057;-56
2021/09/23 00:55:29;;;;;;;7.90;1.17;;;;;;;;;;5047456;28;20033;-56
2021/09/23 00:57:54;;;;;;;8.18;0.90;;;;;;;;;;5047524;28;21956;-54
2021/09/23 01:00:22;;;;;;;10.73;1.02;;;;;;;;;;5048431;28;20049;-56
2021/09/23 01:02:48;;;;;;;6.03;0.88;;;;;;;;;;5047886;28;20045;-55
2021/09/23 01:05:14;;;;;;;5.65;0.90;;;;;;;;;;5030593;28;20032;-54
2021/09/23 01:07:46;;;;;;;3.75;0.77;;;;;;;;;;5044373;28;20523;-56
2021/09/23 01:10:13;;;;;;;5.22;0.80;;;;;;;;;;5047446;28;20032;-56
2021/09/23 01:12:39;;;;;;;4.82;1.00;;;;;;;;;;5045769;28;20073;-54
2021/09/23 01:15:05;;;;;;;11.38;1.08;;;;;;;;;;5029767;28;20116;-54
2021/09/23 01:17:31;;;;;;;10.55;0.95;;;;;;;;;;5046987;28;20033;-55
2021/09/23 01:19:56;;;;;;;16.63;1.17;;;;;;;;;;5050506;28;20051;-55
2021/09/23 01:22:22;;;;;;;4.82;1.00;;;;;;;;;;5048675;28;20041;-56
2021/09/23 01:24:48;;;;;;;17.92;4.22;;;;;;;;;;5046700;28;20028;-55
2021/09/23 01:27:14;;;;;;;7.07;2.40;;;;;;;;;;5049494;28;20046;-56
2021/09/23 01:29:40;;;;;;;5.93;1.20;;;;;;;;;;5051970;28;20060;-55
2021/09/23 01:32:07;;;;;;;5.57;1.10;;;;;;;;;;5051916;28;20041;-56
2021/09/23 01:34:33;;;;;;;10.20;1.27;;;;;;;;;;5052046;28;20056;-57
2021/09/23 01:36:59;;;;;;;10.05;1.20;;;;;;;;;;5052369;28;20045;-55
2021/09/23 01:39:26;;;;;;;8.88;1.38;;;;;;;;;;5051816;28;20425;-56
2021/09/23 01:41:52;;;;;;;8.38;1.40;;;;;;;;;;5048809;28;20573;-55
2021/09/23 01:44:18;;;;;;;5.85;1.15;;;;;;;;;;5033345;28;20040;-56
2021/09/23 01:46:44;;;;;;;5.57;1.20;;;;;;;;;;5034471;28;20041;-57
2021/09/23 01:49:10;;;;;;;10.05;1.00;;;;;;;;;;5019206;28;20048;-56
2021/09/23 01:51:36;;;;;;;12.55;1.70;;;;;;;;;;5034862;28;20041;-57
2021/09/23 01:54:02;;;;;;;4.45;1.40;;;;;;;;;;5037166;28;20150;-56
2021/09/23 01:56:28;;;;;;;13.98;1.67;;;;;;;;;;5034427;28;20045;-54
2021/09/23 01:58:54;;;;;;;12.18;4.88;;;;;;;;;;5034081;28;20091;-57
2021/09/23 02:01:21;;;;;;;12.40;3.78;;;;;;;;;;5035321;28;20045;-57
2021/09/23 02:03:47;;;;;;;8.27;2.17;;;;;;;;;;5035613;28;20121;-56
2021/09/23 02:06:13;;;;;;;8.95;2.03;;;;;;;;;;5033103;28;20041;-56
2021/09/23 02:08:39;;;;;;;9.65;2.45;;;;;;;;;;5028469;28;20048;-56
2021/09/23 02:11:05;;;;;;;7.93;1.77;;;;;;;;;;5034409;28;20072;-54
2021/09/23 02:13:32;;;;;;;10.52;1.77;;;;;;;;;;5033630;28;21003;-56
2021/09/23 02:15:58;;;;;;;7.72;1.40;;;;;;;;;;5032706;28;20037;-58
2021/09/23 02:18:23;;;;;;;12.93;1.60;;;;;;;;;;5016735;28;20573;-57
2021/09/23 02:20:49;;;;;;;7.30;1.00;;;;;;;;;;5033233;28;20038;-57
2021/09/23 02:23:15;;;;;;;6.80;1.20;;;;;;;;;;5032730;28;20380;-57
2021/09/23 02:25:41;;;;;;;5.20;1.00;;;;;;;;;;5030713;28;20417;-57
2021/09/23 02:28:07;;;;;;;5.88;1.08;;;;;;;;;;5016236;28;20033;-56
2021/09/23 02:30:33;;;;;;;4.07;0.80;;;;;;;;;;5031563;28;20048;-57
2021/09/23 02:32:59;;;;;;;4.35;0.90;;;;;;;;;;5031181;28;20045;-55
2021/09/23 02:35:25;;;;;;;7.22;0.98;;;;;;;;;;5032995;28;20052;-56
2021/09/23 02:37:51;;;;;;;8.60;1.05;;;;;;;;;;5031546;28;20112;-55
2021/09/23 02:40:16;;;;;;;4.80;1.00;;;;;;;;;;5032247;28;20087;-56
2021/09/23 02:42:42;;;;;;;2.25;0.50;;;;;;;;;;5020447;28;20501;-55
2021/09/23 02:45:09;;;;;;;3.13;0.80;;;;;;;;;;5029086;28;20393;-55
2021/09/23 02:47:35;;;;;;;4.18;0.65;;;;;;;;;;5028239;28;20044;-55
2021/09/23 02:50:01;;;;;;;4.40;0.80;;;;;;;;;;5028992;28;20165;-57
2021/09/23 02:52:27;;;;;;;10.02;0.80;;;;;;;;;;5027160;28;20064;-57
2021/09/23 02:54:53;;;;;;;5.45;0.80;;;;;;;;;;5029083;28;20481;-56
2021/09/23 02:57:19;;;;;;;5.30;1.00;;;;;;;;;;5027449;28;20379;-56
2021/09/23 02:59:45;;;;;;;2.50;0.50;;;;;;;;;;5029094;28;20041;-57
2021/09/23 03:02:11;;;;;;;1.67;0.55;;;;;;;;;;5029095;28;20048;-57
2021/09/23 03:04:37;;;;;;;1.75;0.50;;;;;;;;;;5029898;28;20575;-56
2021/09/23 03:07:03;;;;;;;2.80;0.60;;;;;;;;;;5028294;28;20041;-57
2021/09/23 03:09:29;;;;;;;2.85;0.63;;;;;;;;;;5030014;28;20041;-57
2021/09/23 03:11:55;;;;;;;8.07;0.80;;;;;;;;;;5029654;28;20095;-58
2021/09/23 03:14:21;;;;;;;2.83;0.60;;;;;;;;;;5028221;28;20053;-57
2021/09/23 03:16:47;;;;;;;1.67;0.60;;;;;;;;;;5028141;28;20048;-55
2021/09/23 03:19:12;;;;;;;1.55;0.47;;;;;;;;;;5030517;28;20029;-54
2021/09/23 03:21:38;;;;;;;2.95;0.70;;;;;;;;;;5028804;28;20185;-56
2021/09/23 03:24:04;;;;;;;1.20;0.50;;;;;;;;;;5026577;28;20045;-56
2021/09/23 03:26:30;;;;;;;2.08;0.60;;;;;;;;;;5010955;28;20046;-56
2021/09/23 03:28:56;;;;;;;1.15;0.45;;;;;;;;;;5026487;28;20065;-57
2021/09/23 03:31:22;;;;;;;2.90;0.60;;;;;;;;;;5027546;28;20057;-56
2021/09/23 03:33:48;;;;;;;1.23;0.50;;;;;;;;;;5029566;28;20082;-56
2021/09/23 03:36:14;;;;;;;1.77;0.55;;;;;;;;;;5028487;28;20045;-57
2021/09/23 03:38:41;;;;;;;3.50;0.50;;;;;;;;;;5029134;28;20040;-57
2021/09/23 03:41:07;;;;;;;2.53;0.65;;;;;;;;;;5029329;28;20063;-56
2021/09/23 03:43:33;;;;;;;2.80;0.55;;;;;;;;;;5048358;28;20057;-54
2021/09/23 03:46:04;;;;;;;1.80;0.50;;;;;;;;;;5048604;28;20102;-56
2021/09/23 03:48:30;;;;;;;1.73;0.50;;;;;;;;;;5050450;28;20131;-56
2021/09/23 03:50:56;;;;;;;1.05;0.40;;;;;;;;;;5049609;28;20067;-56
2021/09/23 03:53:24;;;;;;;1.17;0.40;;;;;;;;;;5048642;28;20044;-55
2021/09/23 03:55:50;;;;;;;3.10;0.80;;;;;;;;;;5047607;28;21007;-55
2021/09/23 03:58:16;;;;;;;1.65;0.40;;;;;;;;;;5049634;28;20033;-52
2021/09/23 04:00:42;;;;;;;1.00;0.40;;;;;;;;;;5049345;28;20439;-56
2021/09/23 04:03:08;;;;;;;1.85;0.50;;;;;;;;;;5048440;28;20689;-56
2021/09/23 04:05:33;;;;;;;1.65;0.55;;;;;;;;;;5046129;28;20139;-53
2021/09/23 04:08:01;;;;;;;2.08;0.55;;;;;;;;;;5050852;28;20041;-55
2021/09/23 04:10:28;;;;;;;1.45;0.50;;;;;;;;;;5047801;28;20029;-54
2021/09/23 04:12:55;;;;;;;0.77;0.40;;;;;;;;;;5049673;28;20136;-55
2021/09/23 04:15:22;;;;;;;1.15;0.50;;;;;;;;;;5047248;28;20052;-55
2021/09/23 04:17:48;;;;;;;1.55;0.40;;;;;;;;;;5049656;28;20464;-55
2021/09/23 04:20:14;;;;;;;1.52;0.60;;;;;;;;;;5048480;28;20036;-55
2021/09/23 04:22:40;;;;;;;4.35;0.57;;;;;;;;;;5048368;28;20255;-55
2021/09/23 04:25:06;;;;;;;2.20;0.50;;;;;;;;;;5048648;28;20516;-56
2021/09/23 04:27:32;;;;;;;2.25;0.68;;;;;;;;;;5046776;28;20391;-55
2021/09/23 04:29:58;;;;;;;0.93;0.40;;;;;;;;;;5048086;28;20128;-55
2021/09/23 04:32:23;;;;;;;1.60;0.50;;;;;;;;;;5047735;28;20338;-55
2021/09/23 04:34:49;;;;;;;3.92;0.60;;;;;;;;;;5049079;28;20396;-55
2021/09/23 04:37:15;;;;;;;1.80;0.47;;;;;;;;;;5046394;28;20463;-56
2021/09/23 04:39:41;;;;;;;2.60;0.50;;;;;;;;;;5047481;28;20041;-55
2021/09/23 04:42:07;;;;;;;2.50;0.47;;;;;;;;;;5040338;28;20808;-55
2021/09/23 04:44:33;;;;;;;0.98;0.40;;;;;;;;;;5026366;28;20045;-55
2021/09/23 04:47:02;;;;;;;3.55;0.70;;;;;;;;;;5025625;28;20193;-56
2021/09/23 04:49:28;;;;;;;2.33;0.70;;;;;;;;;;5027108;28;20042;-55
2021/09/23 04:51:54;;;;;;;1.70;0.50;;;;;;;;;;5027232;28;20044;-55
2021/09/23 04:54:19;;;;;;;3.70;0.50;;;;;;;;;;5024623;28;20057;-56
2021/09/23 04:56:45;;;;;;;1.10;0.50;;;;;;;;;;5025916;28;20033;-55
2021/09/23 04:59:11;;;;;;;2.58;0.60;;;;;;;;;;5028680;28;20440;-55
2021/09/23 05:01:37;;;;;;;1.45;0.50;;;;;;;;;;5026498;28;20044;-55
2021/09/23 05:04:03;;;;;;;2.30;0.50;;;;;;;;;;5025670;28;20038;-55
2021/09/23 05:06:29;;;;;;;1.30;0.43;;;;;;;;;;5027168;28;20408;-54
2021/09/23 05:08:54;;;;;;;2.20;0.50;;;;;;;;;;5027847;28;20759;-56
2021/09/23 05:11:20;;;;;;;1.30;0.50;;;;;;;;;;5027406;28;20457;-55
2021/09/23 05:13:46;;;;;;;1.85;0.50;;;;;;;;;;5029218;28;20051;-54
2021/09/23 05:16:12;;;;;;;2.10;0.50;;;;;;;;;;5027589;28;20129;-54
2021/09/23 05:18:37;;;;;;;1.83;0.43;;;;;;;;;;5026432;28;20052;-55
2021/09/23 05:21:03;;;;;;;2.30;0.47;;;;;;;;;;5029245;28;20044;-54
2021/09/23 05:23:29;;;;;;;2.35;0.50;;;;;;;;;;5028210;28;20068;-54
2021/09/23 05:25:55;;;;;;;0.75;0.32;;;;;;;;;;5028065;28;20052;-56
2021/09/23 05:28:22;;;;;;;2.63;0.55;;;;;;;;;;5026685;28;20890;-54
2021/09/23 05:30:48;;;;;;;1.90;0.43;;;;;;;;;;5028385;28;20042;-54
2021/09/23 05:33:14;;;;;;;5.38;0.60;;;;;;;;;;5027337;28;20152;-54
2021/09/23 05:35:41;;;;;;;2.00;0.52;;;;;;;;;;5029297;28;20037;-55
2021/09/23 05:38:07;;;;;;;3.17;0.50;;;;;;;;;;5026335;28;21853;-55
2021/09/23 05:40:33;;;;;;;1.33;0.40;;;;;;;;;;5027613;28;20025;-56
2021/09/23 05:42:59;;;;;;;0.88;0.40;;;;;;;;;;5041476;28;20091;-54
2021/09/23 05:45:25;;;;;;;2.00;0.40;;;;;;;;;;5045964;28;20041;-56
2021/09/23 05:47:51;;;;;;;2.28;0.60;;;;;;;;;;5046536;28;20045;-55
2021/09/23 05:50:17;;;;;;;2.03;0.52;;;;;;;;;;5045832;28;20032;-56
2021/09/23 05:52:43;;;;;;;1.50;0.50;;;;;;;;;;5046163;28;20049;-56
2021/09/23 05:55:09;;;;;;;1.60;0.40;;;;;;;;;;5045415;28;20051;-55
2021/09/23 05:57:35;;;;;;;3.17;0.47;;;;;;;;;;5046029;28;20032;-56
2021/09/23 06:00:03;;;;;;;1.23;0.43;;;;;;;;;;5047095;28;20099;-55
2021/09/23 06:02:29;;;;;;;2.67;0.55;;;;;;;;;;5045535;28;20109;-54
2021/09/23 06:04:55;;;;;;;1.67;0.43;;;;;;;;;;5045643;28;20037;-56
2021/09/23 06:07:21;;;;;;;2.20;0.52;;;;;;;;;;5045992;28;20032;-55
2021/09/23 06:09:47;;;;;;;2.22;0.63;;;;;;;;;;5048623;28;20098;-56
2021/09/23 06:12:12;;;;;;;1.70;0.60;;;;;;;;;;5046226;28;20041;-56
2021/09/23 06:14:38;;;;;;;1.38;0.60;;;;;;;;;;5050105;28;20385;-56
2021/09/23 06:17:04;;;;;;;1.63;0.43;;;;;;;;;;5049972;28;20557;-53
2021/09/23 06:19:30;;;;;;;1.70;0.60;;;;;;;;;;5032745;28;20036;-56
2021/09/23 06:21:56;;;;;;;1.08;0.40;;;;;;;;;;5049940;28;20033;-55
2021/09/23 06:24:22;;;;;;;1.23;0.40;;;;;;;;;;5050613;28;20127;-57
2021/09/23 06:26:48;;;;;;;1.52;0.47;;;;;;;;;;5050325;28;20040;-55
2021/09/23 06:29:14;;;;;;;1.05;0.35;;;;;;;;;;5051172;28;20161;-54
2021/09/23 06:31:41;;;;;;;1.33;0.40;;;;;;;;;;5048661;28;20080;-56
2021/09/23 06:34:06;;;;;;;1.25;0.43;;;;;;;;;;5050241;28;20052;-56
2021/09/23 06:36:34;;;;;;;1.90;0.50;;;;;;;;;;5048581;28;20040;-56
2021/09/23 06:39:01;;;;;;;0.63;0.40;;;;;;;;;;5051235;28;20040;-57
2021/09/23 06:41:27;;;;;;;1.50;0.60;;;;;;;;;;5029781;28;20037;-57
2021/09/23 06:43:52;;;;;;;1.20;0.40;;;;;;;;;;5050786;28;20047;-56
2021/09/23 06:46:20;;;;;;;5.18;0.60;;;;;;;;;;5048981;28;20037;-56
2021/09/23 06:48:47;;;;;;;1.23;0.40;;;;;;;;;;5051420;28;20432;-56
2021/09/23 06:51:14;;;;;;;2.17;0.50;;;;;;;;;;5050808;28;20482;-56
2021/09/23 06:53:40;;;;;;;0.55;0.40;;;;;;;;;;5050467;28;20517;-56
2021/09/23 06:56:05;;;;;;;1.33;0.45;;;;;;;;;;5051300;28;20044;-56
2021/09/23 06:58:31;;;;;;;1.70;0.50;;;;;;;;;;5050352;28;20036;-55
2021/09/23 07:00:57;;;;;;;3.55;0.50;;;;;;;;;;5051420;28;20097;-57
2021/09/23 07:03:23;;;;;;;1.80;0.50;;;;;;;;;;5050165;28;20037;-56
2021/09/23 07:05:49;;;;;;;1.13;0.40;;;;;;;;;;5049158;28;20040;-54
2021/09/23 07:08:17;;;;;;;2.55;0.60;;;;;;;;;;5048336;28;20052;-55
2021/09/23 07:10:43;;;;;;;1.50;0.57;;;;;;;;;;5047742;28;20060;-55
2021/09/23 07:13:09;;;;;;;1.90;0.40;;;;;;;;;;5029748;28;20052;-56
2021/09/23 07:15:35;;;;;;;0.90;0.40;;;;;;;;;;5047846;28;20032;-55
2021/09/23 07:18:01;;;;;;;1.15;0.50;;;;;;;;;;5049607;28;20693;-56
2021/09/23 07:20:26;;;;;;;1.83;0.50;;;;;;;;;;5049413;28;20035;-56
2021/09/23 07:22:52;;;;;;;1.70;0.50;;;;;;;;;;5049777;28;20496;-56
2021/09/23 07:25:23;;;;;;;2.50;0.40;;;;;;;;;;5050206;28;20352;-54
2021/09/23 07:27:49;;;;;;;0.90;0.40;;;;;;;;;;5031172;28;20032;-55
2021/09/23 07:30:15;;;;;;;3.60;0.60;;;;;;;;;;5051422;28;20032;-56
2021/09/23 07:32:41;;;;;;;1.35;0.40;;;;;;;;;;5049200;28;20064;-56
2021/09/23 07:35:07;;;;;;;1.02;0.47;;;;;;;;;;5050411;28;20044;-56
2021/09/23 07:37:33;;;;;;;0.98;0.40;;;;;;;;;;5047786;28;20135;-55
2021/09/23 07:39:59;;;;;;;0.65;0.30;;;;;;;;;;5030052;28;20083;-55
2021/09/23 07:42:25;;;;;;;0.73;0.40;;;;;;;;;;5047889;28;20053;-55
2021/09/23 07:44:51;;;;;;;1.35;0.50;;;;;;;;;;5050930;28;20045;-56
2021/09/23 07:47:17;;;;;;;1.35;0.50;;;;;;;;;;5048015;28;20066;-56
2021/09/23 07:49:42;;;;;;;3.15;0.50;;;;;;;;;;5049418;28;20507;-56
2021/09/23 07:52:08;;;;;;;1.75;0.63;;;;;;;;;;5050839;28;20036;-55
2021/09/23 07:54:34;;;;;;;1.13;0.40;;;;;;;;;;5050894;28;20652;-53
2021/09/23 07:57:00;;;;;;;3.20;0.57;;;;;;;;;;5029475;28;20414;-56
2021/09/23 07:59:26;;;;;;;1.65;0.47;;;;;;;;;;5048831;28;20041;-56
2021/09/23 08:01:52;;;;;;;3.70;0.50;;;;;;;;;;5050156;28;20098;-56
2021/09/23 08:04:17;;;;;;;0.63;0.32;;;;;;;;;;5049046;28;20036;-56
2021/09/23 08:06:44;;;;;;;1.95;0.50;;;;;;;;;;5047434;28;20033;-52
2021/09/23 08:09:10;;;;;;;1.25;0.50;;;;;;;;;;5050354;28;20740;-56
2021/09/23 08:11:36;;;;;;;1.40;0.50;;;;;;;;;;5049084;28;20043;-55
2021/09/23 08:14:02;;;;;;;1.02;0.50;;;;;;;;;;5048551;28;20052;-55
2021/09/23 08:16:28;;;;;;;2.42;0.60;;;;;;;;;;5046960;28;20040;-55
2021/09/23 08:18:54;;;;;;;1.48;0.47;;;;;;;;;;5049204;28;20127;-55
2021/09/23 08:21:19;;;;;;;2.70;0.70;;;;;;;;;;5049529;28;20071;-55
2021/09/23 08:23:45;;;;;;;2.38;0.65;;;;;;;;;;5050546;28;20037;-55
2021/09/23 08:26:11;;;;;;;3.25;1.02;;;;;;;;;;5048807;28;20033;-55
2021/09/23 08:28:37;;;;;;;2.63;0.65;;;;;;;;;;5049556;28;20872;-56
2021/09/23 08:31:03;;;;;;;2.53;0.70;;;;;;;;;;5049676;28;20036;-55
2021/09/23 08:33:29;;;;;;;2.13;0.70;;;;;;;;;;5031742;28;20052;-56
2021/09/23 08:35:55;;;;;;;1.77;0.60;;;;;;;;;;5048298;28;20133;-56
2021/09/23 08:38:21;;;;;;;1.23;0.40;;;;;;;;;;5032542;28;20040;-55
2021/09/23 08:40:51;;;;;;;2.00;0.50;;;;;;;;;;5050781;28;20524;-55
2021/09/23 08:43:17;;;;;;;1.05;0.50;;;;;;;;;;5050737;28;20508;-53
2021/09/23 08:45:43;;;;;;;5.00;0.60;;;;;;;;;;5050160;28;20047;-55
2021/09/23 08:48:09;;;;;;;1.88;0.50;;;;;;;;;;5048136;28;20041;-55
2021/09/23 08:50:35;;;;;;;1.75;0.50;;;;;;;;;;5029065;28;20057;-55
2021/09/23 08:53:01;;;;;;;1.13;0.45;;;;;;;;;;5038572;28;20136;-56
2021/09/23 08:55:28;;;;;;;2.42;0.45;;;;;;;;;;5047274;28;20052;-56
2021/09/23 08:57:54;;;;;;;1.15;0.40;;;;;;;;;;5047597;28;20040;-56
2021/09/23 09:00:23;;;;;;;1.60;0.50;;;;;;;;;;5048921;28;20037;-56
2021/09/23 09:03:08;;;;;;;1.80;0.50;;;;;;;;;;5047572;28;21872;-56
2021/09/23 09:05:35;;;;;;;1.90;0.60;;;;;;;;;;5045320;28;20425;-56
2021/09/23 09:08:02;;;;;;;1.23;0.40;;;;;;;;;;5047063;28;20805;-56
2021/09/23 09:10:28;;;;;;;1.52;0.50;;;;;;;;;;5028654;28;20068;-55
2021/09/23 09:12:54;;;;;;;1.13;0.40;;;;;;;;;;5049102;28;20457;-56
2021/09/23 09:15:28;;;;;;;1.00;0.40;;;;;;;;;;5045826;28;20089;-53
2021/09/23 09:17:53;;;;;;;1.25;0.50;;;;;;;;;;5046882;28;20047;-55
2021/09/23 09:20:19;;;;;;;2.13;0.50;;;;;;;;;;5049348;28;20044;-54
2021/09/23 09:22:45;;;;;;;1.25;0.60;;;;;;;;;;5049399;28;20090;-56
2021/09/23 09:25:12;;;;;;;0.90;0.43;;;;;;;;;;5028851;28;20128;-55
2021/09/23 09:27:42;;;;;;;1.88;0.70;;;;;;;;;;5046444;28;20041;-56
2021/09/23 09:30:13;;;;;;;5.68;0.68;;;;;;;;;;5050113;28;20082;-55
2021/09/23 09:32:44;;;;;;;1.88;0.50;;;;;;;;;;5047132;28;20128;-55
2021/09/23 09:35:12;;;;;;;2.80;0.60;;;;;;;;;;5046277;28;20044;-55
2021/09/23 09:37:39;;;;;;;2.65;0.65;;;;;;;;;;5046594;28;20069;-55
2021/09/23 09:40:05;;;;;;;1.63;0.50;;;;;;;;;;5046325;28;20056;-54
2021/09/23 09:42:32;;;;;;;2.08;0.60;;;;;;;;;;5037493;28;20099;-54
2021/09/23 09:44:59;;;;;;;1.92;0.60;;;;;;;;;;5029609;28;20041;-54
2021/09/23 09:47:30;;;;;;;1.38;0.50;;;;;;;;;;5033141;28;20094;-55
2021/09/23 09:49:56;;;;;;;1.55;0.50;;;;;;;;;;5034841;28;20045;-56
2021/09/23 09:52:30;;;;;;;2.33;0.60;;;;;;;;;;5015661;28;20048;-56
2021/09/23 09:55:00;;;;;;;3.78;0.55;;;;;;;;;;5033269;28;20053;-55
2021/09/23 09:57:26;;;;;;;1.30;0.50;;;;;;;;;;5036755;28;20513;-56
2021/09/23 09:59:52;;;;;;;4.90;0.70;;;;;;;;;;5036260;28;20064;-56
2021/09/23 10:02:18;;;;;;;2.15;0.70;;;;;;;;;;5037474;28;20483;-55
2021/09/23 10:04:45;;;;;;;1.77;0.60;;;;;;;;;;5036223;28;20043;-55
2021/09/23 10:07:12;;;;;;;2.15;0.50;;;;;;;;;;5033936;28;20678;-55
2021/09/23 10:09:40;;;;;;;1.35;0.50;;;;;;;;;;5035296;28;22075;-55
2021/09/23 10:12:06;;;;;;;3.50;0.80;;;;;;;;;;5036729;28;20037;-55
2021/09/23 10:14:33;;;;;;;2.75;0.70;;;;;;;;;;5035028;28;20049;-53
2021/09/23 10:16:59;;;;;;;2.83;0.80;;;;;;;;;;5034243;28;20041;-55
2021/09/23 10:19:25;;;;;;;2.80;0.80;;;;;;;;;;5024189;28;20656;-53
2021/09/23 10:21:51;;;;;;;4.65;0.88;;;;;;;;;;5034309;28;20029;-55
2021/09/23 10:24:18;;;;;;;3.50;0.80;;;;;;;;;;5036639;28;20045;-52
2021/09/23 10:26:45;;;;;;;3.60;0.77;;;;;;;;;;5031939;28;20065;-55
2021/09/23 10:29:11;;;;;;;3.47;0.80;;;;;;;;;;5033013;28;20437;-55
2021/09/23 10:31:37;;;;;;;3.10;0.90;;;;;;;;;;5032818;28;20052;-52
2021/09/23 10:34:04;;;;;;;3.85;0.80;;;;;;;;;;5036410;28;20414;-54
2021/09/23 10:36:30;;;;;;;2.95;0.88;;;;;;;;;;5034728;28;20168;-54
2021/09/23 10:38:57;;;;;;;3.88;0.90;;;;;;;;;;5035202;28;20499;-53
2021/09/23 10:41:25;;;;;;;2.05;0.70;;;;;;;;;;5034638;28;20450;-54
2021/09/23 10:43:52;;;;;;;3.40;1.02;;;;;;;;;;5036114;28;20037;-53
2021/09/23 10:46:18;;;;;;;3.40;1.00;;;;;;;;;;5031677;28;20034;-54
2021/09/23 10:48:46;;;;;;;3.28;0.90;;;;;;;;;;5031924;28;20041;-54
2021/09/23 10:51:13;;;;;;;5.60;0.93;;;;;;;;;;5034772;28;20068;-55
2021/09/23 10:53:39;;;;;;;2.63;0.90;;;;;;;;;;5033962;28;20510;-56
2021/09/23 10:56:07;;;;;;;6.43;0.90;;;;;;;;;;5032159;28;20132;-54
2021/09/23 10:58:33;;;;;;;5.47;0.80;;;;;;;;;;5032663;28;20048;-55
2021/09/23 11:01:00;;;;;;;4.47;1.33;;;;;;;;;;5033729;28;20090;-54
2021/09/23 11:03:38;;;;;;;4.18;0.73;;;;;;;;;;5034997;28;20060;-53
2021/09/23 11:06:10;;;;;;;4.15;0.90;;;;;;;;;;5033501;28;20052;-55
2021/09/23 11:08:40;;;;;;;1.80;0.70;;;;;;;;;;5032236;28;20033;-54
2021/09/23 11:11:07;;;;;;;1.63;0.55;;;;;;;;;;5035137;28;20076;-53
2021/09/23 11:13:35;;;;;;;3.45;0.80;;;;;;;;;;5035152;28;20182;-55
2021/09/23 11:16:03;;;;;;;2.05;0.60;;;;;;;;;;5033785;28;20080;-55
2021/09/23 11:18:29;;;;;;;3.13;0.80;;;;;;;;;;5034119;28;20029;-55
2021/09/23 11:20:56;;;;;;;3.17;0.80;;;;;;;;;;5032236;28;20489;-53
2021/09/23 11:23:23;;;;;;;3.10;1.00;;;;;;;;;;5033288;28;20488;-54
2021/09/23 11:25:50;;;;;;;3.70;0.98;;;;;;;;;;5033009;28;20041;-55
2021/09/23 11:28:17;;;;;;;7.65;1.17;;;;;;;;;;5033200;28;20068;-55
2021/09/23 11:30:43;;;;;;;2.50;0.73;;;;;;;;;;5033602;28;20477;-54
2021/09/23 11:33:09;;;;;;;7.72;1.00;;;;;;;;;;5033170;28;20067;-55
2021/09/23 11:35:36;;;;;;;7.35;1.00;;;;;;;;;;5031900;28;20025;-55
2021/09/23 11:38:03;;;;;;;6.38;1.10;;;;;;;;;;5032606;28;20049;-55
2021/09/23 11:40:30;;;;;;;4.55;0.95;;;;;;;;;;5030428;28;20116;-55
2021/09/23 11:43:04;;;;;;;3.67;1.00;;;;;;;;;;5044955;28;20056;-56
2021/09/23 11:45:33;;;;;;;3.50;1.20;;;;;;;;;;5048682;28;20048;-54
2021/09/23 11:48:00;;;;;;;4.80;1.27;;;;;;;;;;5049786;28;20316;-55
2021/09/23 11:50:26;;;;;;;9.38;1.20;;;;;;;;;;5047893;28;20037;-56
2021/09/23 11:53:12;;;;;;;3.65;1.08;;;;;;;;;;5048657;28;20045;-55
2021/09/23 11:55:43;;;;;;;6.03;1.00;;;;;;;;;;5048822;28;20117;-55
2021/09/23 11:58:13;;;;;;;6.72;1.08;;;;;;;;;;5048210;28;20040;-55
2021/09/23 12:00:41;;;;;;;8.38;1.05;;;;;;;;;;5050455;28;20052;-55
2021/09/23 12:03:07;;;;;;;12.63;1.45;;;;;;;;;;5049739;28;20409;-54
2021/09/23 12:05:33;;;;;;;5.22;1.30;;;;;;;;;;5047938;28;20151;-54
2021/09/23 12:08:08;;;;;;;7.18;1.35;;;;;;;;;;5050223;28;20440;-55
2021/09/23 12:10:33;;;;;;;6.03;1.33;;;;;;;;;;5047918;28;20052;-54
2021/09/23 12:13:00;;;;;;;4.18;1.10;;;;;;;;;;5049769;28;20033;-56
2021/09/23 12:15:30;;;;;;;4.45;1.30;;;;;;;;;;5047764;28;20564;-52
2021/09/23 12:18:00;;;;;;;7.45;1.50;;;;;;;;;;5049965;28;20044;-55
2021/09/23 12:20:42;;;;;;;3.22;1.23;;;;;;;;;;5048960;28;20559;-56
2021/09/23 12:23:21;;;;;;;7.03;1.50;;;;;;;;;;5049390;28;20098;-55
2021/09/23 12:26:08;;;;;;;8.50;1.38;;;;;;;;;;5047714;28;20179;-56
2021/09/23 12:28:38;;;;;;;10.80;1.48;;;;;;;;;;5046753;28;20140;-55
2021/09/23 12:31:04;;;;;;;9.52;1.67;;;;;;;;;;5050572;28;20996;-56
2021/09/23 12:33:30;;;;;;;3.17;1.35;;;;;;;;;;5048768;28;20052;-56
2021/09/23 12:36:12;;;;;;;6.57;1.35;;;;;;;;;;5045062;28;20041;-54
2021/09/23 12:38:38;;;;;;;4.93;1.30;;;;;;;;;;5045988;28;20296;-55
2021/09/23 12:41:24;;;;;;;9.75;1.60;;;;;;;;;;5048670;28;20047;-53
2021/09/23 12:43:50;;;;;;;6.68;1.40;;;;;;;;;;5049941;28;21927;-55
2021/09/23 12:46:16;;;;;;;4.18;1.58;;;;;;;;;;5048381;28;20044;-56
2021/09/23 12:48:43;;;;;;;9.43;3.10;;;;;;;;;;5047699;28;20060;-57
2021/09/23 12:51:10;;;;;;;11.98;1.60;;;;;;;;;;5047996;28;20032;-53
2021/09/23 12:53:36;;;;;;;3.70;1.38;;;;;;;;;;5047453;28;20056;-54
2021/09/23 12:56:07;;;;;;;5.22;1.52;;;;;;;;;;5046639;28;20516;-55
2021/09/23 12:58:33;;;;;;;3.10;1.08;;;;;;;;;;5042553;28;20185;-55
2021/09/23 13:01:16;;;;;;;4.63;1.52;;;;;;;;;;5044327;28;20041;-55
2021/09/23 13:03:42;;;;;;;10.35;1.88;;;;;;;;;;5047422;28;21975;-51
2021/09/23 13:06:08;;;;;;;11.00;1.50;;;;;;;;;;5047063;28;20075;-54
2021/09/23 13:08:44;;;;;;;13.18;1.85;;;;;;;;;;5047231;28;20198;-56
2021/09/23 13:11:16;;;;;;;8.70;1.50;;;;;;;;;;5048078;28;20089;-56
2021/09/23 13:13:43;;;;;;;13.93;1.52;;;;;;;;;;5047485;28;20055;-54
2021/09/23 13:16:10;;;;;;;5.93;1.60;;;;;;;;;;5048350;28;20094;-55
2021/09/23 13:18:35;;;;;;;14.73;1.75;;;;;;;;;;5045499;28;20679;-55
2021/09/23 13:21:03;;;;;;;23.63;2.33;;;;;;;;;;5044909;28;20044;-55
2021/09/23 13:23:31;;;;;;;16.88;2.03;;;;;;;;;;5048006;28;20124;-53
2021/09/23 13:26:01;;;;;;;17.45;2.45;;;;;;;;;;5046315;28;20063;-55
2021/09/23 13:28:28;;;;;;;15.45;1.85;;;;;;;;;;5044923;28;20032;-55
2021/09/23 13:30:55;;;;;;;10.82;2.00;;;;;;;;;;5047397;28;20143;-54
2021/09/23 13:33:21;;;;;;;12.43;1.52;;;;;;;;;;5047603;28;20056;-55
2021/09/23 13:35:49;;;;;;;5.35;1.45;;;;;;;;;;5049602;28;20045;-55
2021/09/23 13:38:15;;;;;;;9.80;1.58;;;;;;;;;;5048931;28;20375;-55
2021/09/23 13:40:41;;;;;;;6.07;1.50;;;;;;;;;;5049140;28;20174;-54
2021/09/23 13:43:08;;;;;;;4.75;1.77;;;;;;;;;;5048934;28;20435;-53
2021/09/23 13:45:34;;;;;;;4.07;1.20;;;;;;;;;;5048423;28;20041;-53
2021/09/23 13:48:00;;;;;;;14.57;1.90;;;;;;;;;;5036178;28;20079;-56
2021/09/23 13:50:26;;;;;;;3.83;1.20;;;;;;;;;;5031458;28;20106;-55
2021/09/23 13:52:52;;;;;;;8.70;1.50;;;;;;;;;;5048391;28;20045;-55
2021/09/23 13:55:18;;;;;;;3.90;1.10;;;;;;;;;;5046441;28;20041;-55
2021/09/23 13:57:44;;;;;;;3.38;1.02;;;;;;;;;;5045850;28;20124;-55
2021/09/23 14:00:13;;;;;;;5.47;1.38;;;;;;;;;;5046231;28;20041;-54
2021/09/23 14:02:39;;;;;;;9.93;1.50;;;;;;;;;;5045648;28;20059;-55
2021/09/23 14:05:05;;;;;;;9.68;1.77;;;;;;;;;;5046600;28;20040;-56
2021/09/23 14:07:31;;;;;;;5.50;1.45;;;;;;;;;;5043755;28;20454;-55
2021/09/23 14:09:56;;;;;;;7.50;1.40;;;;;;;;;;5044480;28;20153;-56
2021/09/23 14:12:22;;;;;;;5.20;1.30;;;;;;;;;;5045232;28;20090;-56
2021/09/23 14:14:48;;;;;;;5.53;2.10;;;;;;;;;;5043546;28;20378;-53
2021/09/23 14:17:14;;;;;;;10.00;1.40;;;;;;;;;;5044319;28;20040;-56
2021/09/23 14:19:40;;;;;;;6.82;1.35;;;;;;;;;;5041382;28;20045;-56
2021/09/23 14:22:06;;;;;;;11.43;1.40;;;;;;;;;;5044039;28;20540;-56
2021/09/23 14:24:32;;;;;;;4.18;1.23;;;;;;;;;;5044751;28;20525;-56
2021/09/23 14:26:59;;;;;;;4.57;1.48;;;;;;;;;;5044853;28;20075;-56
2021/09/23 14:29:24;;;;;;;5.22;1.05;;;;;;;;;;5042516;28;20521;-56
2021/09/23 14:31:51;;;;;;;3.83;1.17;;;;;;;;;;5044623;28;20047;-55
2021/09/23 14:34:17;;;;;;;3.17;1.00;;;;;;;;;;5046506;28;20086;-54
2021/09/23 14:36:43;;;;;;;4.57;1.05;;;;;;;;;;5026579;28;20040;-55
2021/09/23 14:39:10;;;;;;;3.35;1.17;;;;;;;;;;5046320;28;20063;-55
2021/09/23 14:41:37;;;;;;;4.80;1.20;;;;;;;;;;5046538;28;20048;-55